Time;durP1;ratioP1;P1;durP2;ratioP2;P2;SDS_P1;SDS_P2;PMS_P1;PMS_P2;Temp;Humidity;BMP_temperature;BMP_pressure;BME280_temperature;BME280_humidity;BME280_pressure;Samples;Min_cycle;Max_cycle;Signal;HPM_P1;HPM_P2
2021/01/11 00:02:16;;;;;;;4.55;3.30;;;;;;;;;;5088809;28;20028;-70
2021/01/11 00:04:42;;;;;;;4.05;3.65;;;;;;;;;;5086629;28;20036;-70
2021/01/11 00:07:09;;;;;;;4.00;3.15;;;;;;;;;;5088799;28;20093;-70
2021/01/11 00:09:35;;;;;;;3.45;2.72;;;;;;;;;;5087742;28;20028;-70
2021/01/11 00:12:01;;;;;;;3.45;3.05;;;;;;;;;;5088342;28;20063;-70
2021/01/11 00:14:27;;;;;;;5.05;4.60;;;;;;;;;;5087073;28;20024;-70
2021/01/11 00:16:53;;;;;;;5.20;4.70;;;;;;;;;;5087666;28;20063;-69
2021/01/11 00:19:19;;;;;;;5.25;3.80;;;;;;;;;;5087751;28;20477;-70
2021/01/11 00:21:46;;;;;;;3.50;3.03;;;;;;;;;;5087538;28;20085;-70
2021/01/11 00:24:12;;;;;;;5.20;3.80;;;;;;;;;;5087530;28;20429;-70
2021/01/11 00:26:38;;;;;;;4.95;4.07;;;;;;;;;;5086551;28;20020;-69
2021/01/11 00:29:04;;;;;;;4.13;3.72;;;;;;;;;;5088243;28;20032;-70
2021/01/11 00:31:30;;;;;;;5.82;4.15;;;;;;;;;;5088074;28;20047;-70
2021/01/11 00:33:56;;;;;;;3.08;2.38;;;;;;;;;;5087505;28;20047;-70
2021/01/11 00:36:22;;;;;;;3.65;3.10;;;;;;;;;;5087285;28;20027;-70
2021/01/11 00:38:49;;;;;;;3.10;2.90;;;;;;;;;;5086801;28;20020;-70
2021/01/11 00:41:21;;;;;;;4.20;3.15;;;;;;;;;;5088022;28;20052;-70
2021/01/11 00:43:47;;;;;;;3.17;2.92;;;;;;;;;;5087330;28;20394;-70
2021/01/11 00:46:23;;;;;;;4.90;3.05;;;;;;;;;;5086893;28;20341;-70
2021/01/11 00:48:50;;;;;;;3.38;2.72;;;;;;;;;;5087377;28;20028;-70
2021/01/11 00:51:16;;;;;;;3.72;3.33;;;;;;;;;;5087890;28;20028;-70
2021/01/11 00:53:44;;;;;;;3.85;2.75;;;;;;;;;;5087031;28;20324;-70
2021/01/11 00:56:11;;;;;;;3.15;2.63;;;;;;;;;;5087341;28;20032;-70
2021/01/11 00:58:37;;;;;;;3.88;3.28;;;;;;;;;;5086302;28;20506;-69
2021/01/11 01:01:03;;;;;;;9.20;4.20;;;;;;;;;;5087615;28;20024;-70
2021/01/11 01:03:29;;;;;;;3.35;2.80;;;;;;;;;;5087963;28;20020;-70
2021/01/11 01:05:55;;;;;;;2.92;2.72;;;;;;;;;;5086172;28;20024;-70
2021/01/11 01:08:21;;;;;;;2.90;2.40;;;;;;;;;;5087749;28;20024;-70
2021/01/11 01:10:47;;;;;;;2.97;2.50;;;;;;;;;;5087530;28;20399;-70
2021/01/11 01:13:13;;;;;;;2.65;2.45;;;;;;;;;;5087981;28;20016;-70
2021/01/11 01:15:39;;;;;;;3.42;3.13;;;;;;;;;;5086919;28;20024;-69
2021/01/11 01:18:05;;;;;;;4.20;3.45;;;;;;;;;;5087265;28;20024;-69
2021/01/11 01:20:31;;;;;;;3.78;3.13;;;;;;;;;;5087780;28;20406;-69
2021/01/11 01:22:57;;;;;;;2.53;2.33;;;;;;;;;;5087388;28;20024;-70
2021/01/11 01:25:24;;;;;;;4.07;3.45;;;;;;;;;;5087583;28;20031;-70
2021/01/11 01:27:50;;;;;;;2.85;2.65;;;;;;;;;;5086572;28;20028;-70
2021/01/11 01:30:16;;;;;;;5.00;3.55;;;;;;;;;;5087784;28;20016;-70
2021/01/11 01:32:42;;;;;;;3.13;2.83;;;;;;;;;;5086954;28;20031;-70
2021/01/11 01:35:08;;;;;;;5.78;3.75;;;;;;;;;;5086352;28;20028;-70
2021/01/11 01:37:34;;;;;;;3.42;3.13;;;;;;;;;;5087287;28;20052;-70
2021/01/11 01:40:00;;;;;;;3.00;2.80;;;;;;;;;;5087339;28;20048;-70
2021/01/11 01:42:26;;;;;;;4.22;3.15;;;;;;;;;;5087923;28;20036;-70
2021/01/11 01:44:53;;;;;;;4.85;3.83;;;;;;;;;;5086844;28;20545;-70
2021/01/11 01:47:19;;;;;;;3.47;2.50;;;;;;;;;;5087880;28;20616;-70
2021/01/11 01:49:45;;;;;;;3.33;2.55;;;;;;;;;;5087271;28;20031;-70
2021/01/11 01:52:11;;;;;;;3.60;3.15;;;;;;;;;;5087238;28;20031;-70
2021/01/11 01:54:40;;;;;;;2.40;2.20;;;;;;;;;;5086909;28;20098;-70
2021/01/11 01:57:06;;;;;;;3.88;3.10;;;;;;;;;;5087754;28;20039;-70
2021/01/11 01:59:32;;;;;;;4.05;3.65;;;;;;;;;;5089937;28;20079;-70
2021/01/11 02:02:01;;;;;;;3.78;3.35;;;;;;;;;;5090524;28;20036;-70
2021/01/11 02:04:27;;;;;;;3.58;3.28;;;;;;;;;;5090089;28;20024;-70
2021/01/11 02:06:56;;;;;;;3.28;2.70;;;;;;;;;;5089697;28;20020;-70
2021/01/11 02:09:41;;;;;;;5.20;3.00;;;;;;;;;;5090720;28;20445;-70
2021/01/11 02:12:09;;;;;;;3.83;2.80;;;;;;;;;;5090892;28;20107;-70
2021/01/11 02:14:40;;;;;;;3.35;2.72;;;;;;;;;;5090139;28;20028;-69
2021/01/11 02:17:09;;;;;;;3.47;2.90;;;;;;;;;;5090124;28;20030;-70
2021/01/11 02:19:54;;;;;;;3.13;2.58;;;;;;;;;;5089788;28;20062;-69
2021/01/11 02:22:25;;;;;;;4.03;2.85;;;;;;;;;;5090314;28;20072;-70
2021/01/11 02:24:51;;;;;;;3.83;2.63;;;;;;;;;;5089791;28;20115;-70
2021/01/11 02:27:17;;;;;;;4.40;3.55;;;;;;;;;;5090571;28;20035;-70
2021/01/11 02:29:49;;;;;;;3.45;3.05;;;;;;;;;;5090169;28;20051;-69
2021/01/11 02:32:16;;;;;;;3.33;3.05;;;;;;;;;;5089488;28;20035;-70
2021/01/11 02:34:43;;;;;;;3.13;2.92;;;;;;;;;;5089001;28;20036;-70
2021/01/11 02:37:09;;;;;;;2.38;2.17;;;;;;;;;;5090017;28;20028;-70
2021/01/11 02:39:35;;;;;;;3.00;2.03;;;;;;;;;;5089853;28;20583;-69
2021/01/11 02:42:01;;;;;;;3.13;2.22;;;;;;;;;;5089741;28;20031;-70
2021/01/11 02:44:27;;;;;;;2.72;2.47;;;;;;;;;;5089844;28;20052;-70
2021/01/11 02:46:53;;;;;;;2.55;2.28;;;;;;;;;;5089538;28;20114;-70
2021/01/11 02:49:26;;;;;;;3.30;2.88;;;;;;;;;;5089379;28;20470;-70
2021/01/11 02:52:11;;;;;;;3.63;3.33;;;;;;;;;;5088917;28;20027;-70
2021/01/11 02:54:41;;;;;;;2.70;2.50;;;;;;;;;;5089332;28;20066;-69
2021/01/11 02:57:25;;;;;;;2.75;1.98;;;;;;;;;;5090111;28;20024;-70
2021/01/11 02:59:52;;;;;;;2.40;1.83;;;;;;;;;;5088026;28;20036;-70
2021/01/11 03:02:18;;;;;;;4.43;3.33;;;;;;;;;;5089211;28;20036;-70
2021/01/11 03:04:45;;;;;;;2.35;2.15;;;;;;;;;;5087426;28;20812;-70
2021/01/11 03:07:11;;;;;;;2.95;2.65;;;;;;;;;;5089364;28;20032;-70
2021/01/11 03:09:41;;;;;;;3.10;2.58;;;;;;;;;;5087488;28;20593;-69
2021/01/11 03:12:07;;;;;;;2.38;2.17;;;;;;;;;;5089655;28;20016;-70
2021/01/11 03:14:33;;;;;;;2.08;1.95;;;;;;;;;;5088448;28;20032;-69
2021/01/11 03:17:00;;;;;;;3.15;2.50;;;;;;;;;;5089920;28;20083;-70
2021/01/11 03:19:26;;;;;;;3.15;2.13;;;;;;;;;;5089738;28;20335;-70
2021/01/11 03:21:52;;;;;;;2.42;1.77;;;;;;;;;;5088326;28;20734;-70
2021/01/11 03:24:19;;;;;;;2.35;2.15;;;;;;;;;;5089527;28;20106;-70
2021/01/11 03:26:45;;;;;;;1.75;1.65;;;;;;;;;;5087825;28;20032;-69
2021/01/11 03:29:12;;;;;;;2.45;1.33;;;;;;;;;;5089089;28;20081;-70
2021/01/11 03:31:38;;;;;;;2.30;1.98;;;;;;;;;;5088000;28;20441;-69
2021/01/11 03:34:05;;;;;;;1.88;1.50;;;;;;;;;;5088057;28;20450;-70
2021/01/11 03:36:31;;;;;;;1.67;1.55;;;;;;;;;;5088331;28;20024;-70
2021/01/11 03:38:57;;;;;;;2.60;2.10;;;;;;;;;;5088349;28;20043;-70
2021/01/11 03:41:23;;;;;;;1.75;1.25;;;;;;;;;;5087798;28;20535;-70
2021/01/11 03:43:49;;;;;;;1.60;1.50;;;;;;;;;;5088107;28;20032;-70
2021/01/11 03:46:16;;;;;;;1.70;1.60;;;;;;;;;;5088653;28;20020;-70
2021/01/11 03:48:43;;;;;;;1.88;1.77;;;;;;;;;;5088192;28;20519;-70
2021/01/11 03:51:09;;;;;;;1.33;1.15;;;;;;;;;;5088779;28;20028;-70
2021/01/11 03:53:36;;;;;;;2.05;1.20;;;;;;;;;;5087473;28;20028;-69
2021/01/11 03:56:05;;;;;;;1.80;1.67;;;;;;;;;;5088724;28;20013;-70
2021/01/11 03:58:32;;;;;;;1.52;1.42;;;;;;;;;;5087952;28;20081;-69
2021/01/11 04:00:59;;;;;;;1.00;0.90;;;;;;;;;;5088816;28;20051;-70
2021/01/11 04:03:26;;;;;;;1.48;1.30;;;;;;;;;;5087978;28;20035;-70
2021/01/11 04:05:52;;;;;;;1.98;1.77;;;;;;;;;;5086850;28;20117;-70
2021/01/11 04:08:18;;;;;;;1.13;1.02;;;;;;;;;;5088499;28;20016;-70
2021/01/11 04:10:44;;;;;;;1.88;1.20;;;;;;;;;;5088656;28;20540;-70
2021/01/11 04:13:10;;;;;;;1.20;1.10;;;;;;;;;;5087943;28;20103;-70
2021/01/11 04:15:37;;;;;;;1.50;1.35;;;;;;;;;;5087509;28;20296;-69
2021/01/11 04:18:03;;;;;;;0.82;0.82;;;;;;;;;;5088470;28;20028;-70
2021/01/11 04:20:29;;;;;;;2.00;1.90;;;;;;;;;;5087987;28;20058;-70
2021/01/11 04:22:56;;;;;;;1.40;1.33;;;;;;;;;;5087806;28;20576;-70
2021/01/11 04:25:23;;;;;;;1.77;1.38;;;;;;;;;;5087802;28;20547;-70
2021/01/11 04:27:49;;;;;;;3.55;1.50;;;;;;;;;;5086928;28;20038;-70
2021/01/11 04:30:15;;;;;;;1.92;1.38;;;;;;;;;;5088642;28;20028;-70
2021/01/11 04:32:42;;;;;;;1.40;1.30;;;;;;;;;;5087201;28;20549;-69
2021/01/11 04:35:09;;;;;;;1.67;1.58;;;;;;;;;;5086271;28;20028;-70
2021/01/11 04:37:37;;;;;;;1.08;0.98;;;;;;;;;;5087393;28;20024;-69
2021/01/11 04:40:03;;;;;;;2.75;1.67;;;;;;;;;;5087796;28;20143;-70
2021/01/11 04:42:41;;;;;;;1.75;1.55;;;;;;;;;;5088697;28;20036;-70
2021/01/11 04:45:08;;;;;;;1.33;1.00;;;;;;;;;;5087545;28;20044;-70
2021/01/11 04:47:35;;;;;;;1.70;1.35;;;;;;;;;;5087739;28;20020;-70
2021/01/11 04:50:03;;;;;;;1.30;1.20;;;;;;;;;;5087271;28;20478;-70
2021/01/11 04:52:29;;;;;;;0.90;0.90;;;;;;;;;;5088237;28;20028;-70
2021/01/11 04:54:56;;;;;;;1.55;1.35;;;;;;;;;;5087565;28;20049;-70
2021/01/11 04:57:23;;;;;;;1.05;0.98;;;;;;;;;;5087986;28;20440;-70
2021/01/11 04:59:50;;;;;;;1.15;1.05;;;;;;;;;;5086290;28;20089;-70
2021/01/11 05:02:22;;;;;;;1.58;1.48;;;;;;;;;;5088325;28;20070;-70
2021/01/11 05:04:49;;;;;;;1.17;1.08;;;;;;;;;;5085818;28;20472;-70
2021/01/11 05:07:17;;;;;;;1.63;1.52;;;;;;;;;;5087637;28;20531;-70
2021/01/11 05:09:46;;;;;;;1.00;1.00;;;;;;;;;;5087196;28;20036;-70
2021/01/11 05:12:14;;;;;;;0.82;0.80;;;;;;;;;;5086030;28;20470;-70
2021/01/11 05:14:42;;;;;;;1.27;1.00;;;;;;;;;;5086487;28;20020;-70
2021/01/11 05:17:13;;;;;;;1.35;1.25;;;;;;;;;;5087159;28;20028;-70
2021/01/11 05:19:39;;;;;;;1.30;1.20;;;;;;;;;;5086881;28;20038;-70
2021/01/11 05:22:11;;;;;;;1.33;1.17;;;;;;;;;;5087493;28;20463;-70
2021/01/11 05:24:39;;;;;;;0.60;0.60;;;;;;;;;;5086851;28;20486;-70
2021/01/11 05:27:08;;;;;;;0.90;0.88;;;;;;;;;;5087483;28;20024;-70
2021/01/11 05:29:35;;;;;;;1.17;1.08;;;;;;;;;;5087277;28;20289;-69
2021/01/11 05:32:02;;;;;;;1.92;1.33;;;;;;;;;;5087807;28;20025;-70
2021/01/11 05:34:48;;;;;;;0.65;0.60;;;;;;;;;;5089750;28;20032;-70
2021/01/11 05:37:32;;;;;;;1.20;1.00;;;;;;;;;;5091266;28;20056;-70
2021/01/11 05:40:03;;;;;;;1.15;1.00;;;;;;;;;;5091045;28;20662;-70
2021/01/11 05:42:29;;;;;;;1.58;1.13;;;;;;;;;;5091399;28;20028;-70
2021/01/11 05:45:08;;;;;;;0.77;0.77;;;;;;;;;;5090099;28;20044;-70
2021/01/11 05:47:34;;;;;;;0.98;0.98;;;;;;;;;;5091037;28;20059;-70
2021/01/11 05:50:09;;;;;;;0.90;0.90;;;;;;;;;;5090686;28;20021;-70
2021/01/11 05:52:35;;;;;;;0.75;0.73;;;;;;;;;;5089832;28;20031;-69
2021/01/11 05:55:18;;;;;;;0.85;0.80;;;;;;;;;;5090610;28;20031;-70
2021/01/11 05:57:53;;;;;;;0.65;0.65;;;;;;;;;;5089954;28;20031;-70
2021/01/11 06:00:20;;;;;;;1.33;1.23;;;;;;;;;;5090640;28;20548;-71
2021/01/11 06:02:48;;;;;;;0.65;0.65;;;;;;;;;;5090217;28;20047;-71
2021/01/11 06:05:15;;;;;;;1.35;1.27;;;;;;;;;;5089423;28;20024;-70
2021/01/11 06:07:42;;;;;;;2.00;1.80;;;;;;;;;;5090567;28;20036;-69
2021/01/11 06:10:08;;;;;;;1.33;1.00;;;;;;;;;;5090628;28;20063;-70
2021/01/11 06:12:35;;;;;;;1.50;1.30;;;;;;;;;;5089912;28;20051;-70
2021/01/11 06:15:02;;;;;;;1.10;1.00;;;;;;;;;;5089946;28;20405;-70
2021/01/11 06:17:31;;;;;;;1.27;0.90;;;;;;;;;;5091060;28;20048;-70
2021/01/11 06:19:57;;;;;;;1.15;1.05;;;;;;;;;;5089589;28;20044;-70
2021/01/11 06:22:43;;;;;;;1.70;1.38;;;;;;;;;;5090048;28;20055;-70
2021/01/11 06:25:18;;;;;;;1.08;0.90;;;;;;;;;;5090284;28;20371;-70
2021/01/11 06:27:54;;;;;;;1.70;0.98;;;;;;;;;;5089659;28;20081;-70
2021/01/11 06:30:46;;;;;;;1.23;1.13;;;;;;;;;;5090308;28;20497;-70
2021/01/11 06:33:12;;;;;;;0.75;0.75;;;;;;;;;;5087983;28;20039;-70
2021/01/11 06:35:40;;;;;;;1.08;1.02;;;;;;;;;;5088037;28;20036;-70
2021/01/11 06:38:35;;;;;;;1.15;1.05;;;;;;;;;;5089654;28;20028;-70
2021/01/11 06:41:04;;;;;;;0.75;0.68;;;;;;;;;;5076317;28;20138;-70
2021/01/11 06:43:41;;;;;;;1.20;0.95;;;;;;;;;;5089250;28;20036;-70
2021/01/11 06:46:07;;;;;;;0.70;0.70;;;;;;;;;;5090435;28;20514;-70
2021/01/11 06:48:34;;;;;;;1.00;0.90;;;;;;;;;;5090177;28;20374;-69
2021/01/11 06:51:07;;;;;;;0.95;0.90;;;;;;;;;;5089832;28;20517;-70
2021/01/11 06:53:34;;;;;;;1.27;1.10;;;;;;;;;;5089574;28;20028;-70
2021/01/11 06:56:05;;;;;;;1.55;1.42;;;;;;;;;;5085268;28;20017;-70
2021/01/11 06:58:36;;;;;;;1.02;0.93;;;;;;;;;;5087325;28;20032;-70
2021/01/11 07:01:03;;;;;;;1.23;0.88;;;;;;;;;;5083749;28;20624;-70
2021/01/11 07:04:01;;;;;;;1.65;1.20;;;;;;;;;;5086205;28;20501;-70
2021/01/11 07:06:41;;;;;;;1.17;1.15;;;;;;;;;;5061808;28;20044;-69
2021/01/11 07:09:10;;;;;;;1.23;1.20;;;;;;;;;;5083468;28;20414;-69
2021/01/11 07:11:39;;;;;;;1.50;1.23;;;;;;;;;;5082459;28;20032;-69
2021/01/11 07:14:05;;;;;;;1.65;1.00;;;;;;;;;;5079417;28;20593;-68
2021/01/11 07:16:49;;;;;;;1.08;0.90;;;;;;;;;;5087735;28;20024;-68
2021/01/11 07:19:15;;;;;;;;;;;;;;;;;;5088353;28;20058;-70
2021/01/11 07:21:42;;;;;;;1.95;1.58;;;;;;;;;;5080825;28;20283;-70
2021/01/11 07:24:10;;;;;;;4.20;3.03;;;;;;;;;;5082305;28;20031;-69
2021/01/11 07:26:36;;;;;;;2.25;1.90;;;;;;;;;;5085282;28;20581;-69
2021/01/11 07:29:09;;;;;;;1.83;1.48;;;;;;;;;;5077155;28;20032;-70
2021/01/11 07:31:37;;;;;;;2.80;1.42;;;;;;;;;;5088408;28;20036;-70
2021/01/11 07:34:03;;;;;;;3.83;1.40;;;;;;;;;;5082230;28;20391;-70
2021/01/11 07:36:33;;;;;;;3.95;1.35;;;;;;;;;;5075240;28;20456;-70
2021/01/11 07:39:11;;;;;;;2.33;1.45;;;;;;;;;;5083526;28;20039;-69
2021/01/11 07:41:38;;;;;;;2.72;2.03;;;;;;;;;;5080996;28;20386;-70
2021/01/11 07:44:15;;;;;;;1.95;1.58;;;;;;;;;;5092718;28;20039;-71
2021/01/11 07:46:41;;;;;;;3.67;1.48;;;;;;;;;;5091033;28;20030;-68
2021/01/11 07:49:11;;;;;;;6.85;2.13;;;;;;;;;;5088421;28;20032;-68
2021/01/11 07:51:37;;;;;;;1.95;1.58;;;;;;;;;;5087940;28;20032;-69
2021/01/11 07:54:06;;;;;;;3.40;1.73;;;;;;;;;;5089041;28;20039;-68
2021/01/11 07:56:33;;;;;;;3.10;2.30;;;;;;;;;;5086917;28;20074;-68
2021/01/11 07:59:04;;;;;;;2.55;1.42;;;;;;;;;;5088038;28;20049;-68
2021/01/11 08:01:30;;;;;;;2.40;2.05;;;;;;;;;;5088793;28;20579;-68
2021/01/11 08:03:57;;;;;;;1.83;1.67;;;;;;;;;;5086162;28;20032;-68
2021/01/11 08:06:23;;;;;;;4.70;2.45;;;;;;;;;;5086251;28;20152;-68
2021/01/11 08:08:52;;;;;;;2.63;1.88;;;;;;;;;;5076349;28;20035;-68
2021/01/11 08:11:20;;;;;;;2.80;2.30;;;;;;;;;;5077942;28;20035;-67
2021/01/11 08:13:46;;;;;;;2.60;2.40;;;;;;;;;;5078363;28;20021;-68
2021/01/11 08:16:15;;;;;;;2.22;1.75;;;;;;;;;;5079854;28;20110;-68
2021/01/11 08:18:41;;;;;;;2.67;1.67;;;;;;;;;;5079113;28;20581;-68
2021/01/11 08:21:11;;;;;;;3.85;1.98;;;;;;;;;;5081868;28;20048;-86
2021/01/11 08:23:38;;;;;;;4.10;2.40;;;;;;;;;;5081287;28;20767;-69
2021/01/11 08:26:07;;;;;;;2.53;1.88;;;;;;;;;;5081221;28;20024;-73
2021/01/11 08:28:34;;;;;;;4.88;1.73;;;;;;;;;;5079265;28;20486;-72
2021/01/11 08:31:01;;;;;;;2.00;1.50;;;;;;;;;;5081815;28;20587;-73
2021/01/11 08:33:28;;;;;;;2.28;1.80;;;;;;;;;;5082033;28;20585;-71
2021/01/11 08:36:14;;;;;;;1.52;1.40;;;;;;;;;;5079563;28;20067;-68
2021/01/11 08:38:59;;;;;;;2.45;2.13;;;;;;;;;;5078717;28;20486;-67
2021/01/11 08:41:26;;;;;;;2.20;1.88;;;;;;;;;;5079901;28;20056;-68
2021/01/11 08:43:52;;;;;;;2.33;1.85;;;;;;;;;;5080024;28;20478;-68
2021/01/11 08:46:18;;;;;;;1.77;1.67;;;;;;;;;;5081482;28;20082;-68
2021/01/11 08:48:44;;;;;;;2.35;2.15;;;;;;;;;;5079267;28;20024;-68
2021/01/11 08:51:11;;;;;;;2.88;2.10;;;;;;;;;;5077143;28;20402;-68
2021/01/11 08:53:41;;;;;;;1.88;1.60;;;;;;;;;;5080236;28;20093;-72
2021/01/11 08:56:09;;;;;;;3.80;2.55;;;;;;;;;;5080328;28;20494;-69
2021/01/11 08:58:49;;;;;;;1.77;1.58;;;;;;;;;;5080539;28;20027;-67
2021/01/11 09:01:19;;;;;;;1.98;1.83;;;;;;;;;;5076046;28;20133;-69
2021/01/11 09:03:53;;;;;;;1.45;1.35;;;;;;;;;;5078622;28;20452;-68
2021/01/11 09:06:19;;;;;;;;;;;;;;;;;;5081073;28;20111;-68
2021/01/11 09:08:45;;;;;;;3.55;2.30;;;;;;;;;;5082573;28;20051;-68
2021/01/11 09:11:11;;;;;;;4.88;2.22;;;;;;;;;;5081950;28;20063;-68
2021/01/11 09:13:37;;;;;;;2.58;1.67;;;;;;;;;;5081575;28;20036;-70
2021/01/11 09:16:16;;;;;;;4.70;1.80;;;;;;;;;;5083181;28;20032;-68
2021/01/11 09:18:42;;;;;;;4.20;1.70;;;;;;;;;;5082625;28;20023;-68
2021/01/11 09:21:08;;;;;;;1.63;1.50;;;;;;;;;;5083965;28;20479;-69
2021/01/11 09:23:34;;;;;;;3.05;2.17;;;;;;;;;;5085003;28;20057;-71
2021/01/11 09:26:03;;;;;;;4.85;1.75;;;;;;;;;;5084272;28;20088;-76
2021/01/11 09:28:29;;;;;;;2.70;2.17;;;;;;;;;;5086839;28;20024;-68
2021/01/11 09:30:55;;;;;;;2.03;1.83;;;;;;;;;;5081422;28;20156;-68
2021/01/11 09:33:21;;;;;;;2.10;1.90;;;;;;;;;;5086676;28;20526;-68
2021/01/11 09:35:47;;;;;;;3.28;1.83;;;;;;;;;;5082370;28;20378;-68
2021/01/11 09:38:15;;;;;;;3.33;2.33;;;;;;;;;;5085533;28;20062;-68
2021/01/11 09:40:41;;;;;;;2.60;1.60;;;;;;;;;;5082913;28;20059;-67
2021/01/11 09:43:09;;;;;;;1.20;1.10;;;;;;;;;;5084800;28;20024;-68
2021/01/11 09:45:35;;;;;;;2.38;2.15;;;;;;;;;;5085182;28;20032;-67
2021/01/11 09:48:01;;;;;;;1.90;1.77;;;;;;;;;;5082904;28;20224;-68
2021/01/11 09:50:27;;;;;;;4.47;2.97;;;;;;;;;;5079734;28;20411;-68
2021/01/11 09:52:54;;;;;;;2.45;2.25;;;;;;;;;;5083146;28;20986;-68
2021/01/11 09:55:20;;;;;;;2.47;2.25;;;;;;;;;;5086212;28;20020;-67
2021/01/11 09:57:46;;;;;;;2.42;1.65;;;;;;;;;;5082507;28;20032;-70
2021/01/11 10:00:14;;;;;;;2.40;2.03;;;;;;;;;;5083954;28;20598;-68
2021/01/11 10:02:46;;;;;;;2.40;1.63;;;;;;;;;;5085168;28;20036;-68
2021/01/11 10:05:12;;;;;;;2.38;1.83;;;;;;;;;;5085337;28;20103;-68
2021/01/11 10:07:38;;;;;;;1.58;1.48;;;;;;;;;;5084007;28;20060;-67
2021/01/11 10:10:05;;;;;;;2.63;1.95;;;;;;;;;;5083805;28;20032;-69
2021/01/11 10:12:31;;;;;;;2.63;1.75;;;;;;;;;;5084354;28;20024;-69
2021/01/11 10:14:57;;;;;;;3.95;1.80;;;;;;;;;;5084377;28;20786;-68
2021/01/11 10:17:23;;;;;;;3.47;1.70;;;;;;;;;;5084522;28;20039;-68
2021/01/11 10:19:49;;;;;;;4.20;2.17;;;;;;;;;;5082743;28;20044;-68
2021/01/11 10:22:15;;;;;;;1.77;1.67;;;;;;;;;;5084905;28;20101;-68
2021/01/11 10:24:43;;;;;;;3.45;1.58;;;;;;;;;;5084907;28;20123;-68
2021/01/11 10:27:09;;;;;;;3.15;2.20;;;;;;;;;;5084953;28;20101;-70
2021/01/11 10:29:35;;;;;;;3.90;1.73;;;;;;;;;;5077075;28;20030;-68
2021/01/11 10:32:01;;;;;;;1.60;1.50;;;;;;;;;;5080662;28;20097;-68
2021/01/11 10:34:27;;;;;;;3.42;2.40;;;;;;;;;;5083776;28;20404;-69
2021/01/11 10:36:58;;;;;;;2.75;2.00;;;;;;;;;;5084162;28;20024;-68
2021/01/11 10:39:24;;;;;;;5.82;2.13;;;;;;;;;;5085528;28;20105;-69
2021/01/11 10:41:52;;;;;;;4.70;1.83;;;;;;;;;;5081103;28;20059;-68
2021/01/11 10:44:18;;;;;;;1.80;1.70;;;;;;;;;;5085437;28;20016;-68
2021/01/11 10:46:44;;;;;;;3.60;2.72;;;;;;;;;;5082729;28;20055;-69
2021/01/11 10:49:10;;;;;;;2.50;2.30;;;;;;;;;;5083771;28;20817;-67
2021/01/11 10:51:36;;;;;;;3.15;2.55;;;;;;;;;;5081491;28;20085;-68
2021/01/11 10:54:04;;;;;;;3.15;2.50;;;;;;;;;;5083698;28;20046;-68
2021/01/11 10:56:30;;;;;;;3.53;1.88;;;;;;;;;;5084807;28;20028;-69
2021/01/11 10:58:56;;;;;;;2.53;2.25;;;;;;;;;;5081846;28;20032;-68
2021/01/11 11:01:23;;;;;;;7.35;2.67;;;;;;;;;;5082909;28;20024;-68
2021/01/11 11:03:49;;;;;;;5.68;2.13;;;;;;;;;;5083459;28;20128;-69
2021/01/11 11:06:16;;;;;;;2.90;2.25;;;;;;;;;;5083673;28;20040;-69
2021/01/11 11:08:42;;;;;;;2.00;1.88;;;;;;;;;;5082961;28;20032;-71
2021/01/11 11:11:08;;;;;;;3.00;2.72;;;;;;;;;;5082746;28;20035;-69
2021/01/11 11:13:34;;;;;;;4.38;2.50;;;;;;;;;;5085269;28;20055;-68
2021/01/11 11:16:04;;;;;;;4.30;2.92;;;;;;;;;;5083943;28;20115;-69
2021/01/11 11:18:30;;;;;;;2.65;2.45;;;;;;;;;;5083678;28;20024;-68
2021/01/11 11:20:57;;;;;;;4.28;2.28;;;;;;;;;;5083000;28;20043;-69
2021/01/11 11:23:23;;;;;;;4.65;2.95;;;;;;;;;;5081920;28;20036;-70
2021/01/11 11:25:49;;;;;;;3.80;3.20;;;;;;;;;;5083343;28;20031;-68
2021/01/11 11:28:15;;;;;;;2.13;1.83;;;;;;;;;;5082968;28;20032;-69
2021/01/11 11:30:43;;;;;;;4.97;2.78;;;;;;;;;;5080026;28;20055;-69
2021/01/11 11:33:10;;;;;;;5.00;2.42;;;;;;;;;;5081114;28;20067;-69
2021/01/11 11:35:40;;;;;;;3.63;2.55;;;;;;;;;;5082553;28;20384;-68
2021/01/11 11:38:07;;;;;;;2.50;2.30;;;;;;;;;;5083580;28;20028;-69
2021/01/11 11:40:33;;;;;;;4.20;3.63;;;;;;;;;;5080638;28;20044;-69
2021/01/11 11:42:59;;;;;;;3.40;2.50;;;;;;;;;;5082783;28;20035;-69
2021/01/11 11:45:25;;;;;;;5.45;2.63;;;;;;;;;;5084766;28;20028;-69
2021/01/11 11:47:52;;;;;;;5.95;1.85;;;;;;;;;;5083115;28;20556;-69
2021/01/11 11:50:18;;;;;;;2.65;2.45;;;;;;;;;;5082307;28;20043;-69
2021/01/11 11:52:44;;;;;;;2.45;2.05;;;;;;;;;;5079794;28;20036;-69
2021/01/11 11:55:11;;;;;;;3.70;2.45;;;;;;;;;;5083069;28;20036;-67
2021/01/11 11:57:41;;;;;;;2.08;1.88;;;;;;;;;;5082353;28;20059;-68
2021/01/11 12:00:08;;;;;;;3.20;2.25;;;;;;;;;;5081079;28;20032;-68
2021/01/11 12:02:34;;;;;;;4.50;2.15;;;;;;;;;;5081986;28;20036;-68
2021/01/11 12:05:00;;;;;;;2.20;1.70;;;;;;;;;;5082772;28;20031;-68
2021/01/11 12:07:27;;;;;;;4.05;2.05;;;;;;;;;;5082031;28;20131;-68
2021/01/11 12:09:54;;;;;;;2.58;2.22;;;;;;;;;;5080732;28;20032;-69
2021/01/11 12:12:21;;;;;;;2.35;2.05;;;;;;;;;;5081767;28;20449;-68
2021/01/11 12:14:47;;;;;;;1.85;1.58;;;;;;;;;;5082389;28;20160;-68
2021/01/11 12:17:13;;;;;;;3.38;2.45;;;;;;;;;;5083059;28;20047;-68
2021/01/11 12:19:39;;;;;;;5.05;2.17;;;;;;;;;;5082192;28;20104;-67
2021/01/11 12:22:11;;;;;;;3.42;2.05;;;;;;;;;;5079344;28;20501;-67
2021/01/11 12:24:41;;;;;;;2.25;1.77;;;;;;;;;;5080939;28;20028;-67
2021/01/11 12:27:07;;;;;;;4.82;2.10;;;;;;;;;;5082567;28;20028;-69
2021/01/11 12:29:33;;;;;;;2.85;2.28;;;;;;;;;;5081455;28;20040;-68
2021/01/11 12:32:03;;;;;;;2.88;2.33;;;;;;;;;;5086713;28;20522;-68
2021/01/11 12:34:33;;;;;;;2.80;2.20;;;;;;;;;;5089322;28;20452;-68
2021/01/11 12:37:01;;;;;;;3.58;1.85;;;;;;;;;;5088300;28;20419;-69
2021/01/11 12:39:29;;;;;;;2.25;2.05;;;;;;;;;;5079783;28;20059;-68
2021/01/11 12:41:55;;;;;;;3.03;2.22;;;;;;;;;;5079934;28;20059;-69
2021/01/11 12:44:21;;;;;;;3.95;2.60;;;;;;;;;;5083485;28;20066;-68
2021/01/11 12:46:47;;;;;;;2.75;2.47;;;;;;;;;;5082952;28;20532;-68
2021/01/11 12:49:13;;;;;;;4.35;3.00;;;;;;;;;;5082837;28;20085;-68
2021/01/11 12:51:39;;;;;;;2.67;2.25;;;;;;;;;;5079939;28;21551;-69
2021/01/11 12:54:06;;;;;;;5.68;2.65;;;;;;;;;;5084282;28;20027;-69
2021/01/11 12:56:32;;;;;;;3.08;2.38;;;;;;;;;;5082099;28;20036;-69
2021/01/11 12:58:58;;;;;;;2.67;2.45;;;;;;;;;;5080047;28;20055;-69
2021/01/11 13:01:28;;;;;;;3.38;3.03;;;;;;;;;;5060745;28;20127;-69
2021/01/11 13:03:56;;;;;;;3.58;2.90;;;;;;;;;;5070051;28;20028;-68
2021/01/11 13:06:23;;;;;;;3.40;3.08;;;;;;;;;;5070429;28;20043;-68
2021/01/11 13:08:49;;;;;;;3.63;2.80;;;;;;;;;;5081103;28;20115;-68
2021/01/11 13:11:16;;;;;;;4.57;2.55;;;;;;;;;;5080009;28;20107;-68
2021/01/11 13:13:44;;;;;;;3.15;2.85;;;;;;;;;;5081332;28;20028;-68
2021/01/11 13:16:10;;;;;;;3.83;2.78;;;;;;;;;;5079152;28;20115;-68
2021/01/11 13:18:36;;;;;;;3.67;2.60;;;;;;;;;;5079714;28;20539;-68
2021/01/11 13:21:02;;;;;;;5.18;2.10;;;;;;;;;;5080670;28;20050;-68
2021/01/11 13:23:28;;;;;;;2.88;2.20;;;;;;;;;;5084843;28;20119;-69
2021/01/11 13:25:54;;;;;;;4.63;3.67;;;;;;;;;;5082983;28;20028;-69
2021/01/11 13:28:20;;;;;;;3.72;2.38;;;;;;;;;;5087946;28;20016;-69
2021/01/11 13:30:46;;;;;;;3.10;2.80;;;;;;;;;;5076654;28;20074;-69
2021/01/11 13:33:13;;;;;;;6.43;3.08;;;;;;;;;;5088168;28;20119;-69
2021/01/11 13:35:40;;;;;;;3.25;2.95;;;;;;;;;;5082436;28;20028;-68
2021/01/11 13:38:07;;;;;;;3.65;2.95;;;;;;;;;;5084402;28;20023;-69
2021/01/11 13:40:33;;;;;;;2.38;2.10;;;;;;;;;;5082620;28;20060;-68
2021/01/11 13:42:59;;;;;;;2.90;2.63;;;;;;;;;;5082348;28;20514;-68
2021/01/11 13:45:25;;;;;;;2.50;2.30;;;;;;;;;;5081670;28;20467;-73
2021/01/11 13:47:52;;;;;;;2.88;2.30;;;;;;;;;;5081112;28;20130;-76
2021/01/11 13:50:18;;;;;;;4.07;2.85;;;;;;;;;;5081493;28;20024;-70
2021/01/11 13:52:47;;;;;;;3.85;2.78;;;;;;;;;;5079854;28;20164;-69
2021/01/11 13:55:14;;;;;;;2.72;2.50;;;;;;;;;;5085317;28;20032;-69
2021/01/11 13:57:41;;;;;;;3.80;2.67;;;;;;;;;;5084910;28;20032;-69
2021/01/11 14:00:08;;;;;;;4.57;2.70;;;;;;;;;;5085076;28;20066;-69
2021/01/11 14:02:34;;;;;;;3.38;2.80;;;;;;;;;;5084251;28;20055;-67
2021/01/11 14:05:00;;;;;;;2.47;2.28;;;;;;;;;;5085125;28;20146;-70
2021/01/11 14:07:30;;;;;;;2.70;2.10;;;;;;;;;;5085777;28;20024;-70
2021/01/11 14:09:56;;;;;;;3.08;2.50;;;;;;;;;;5088980;28;20457;-69
2021/01/11 14:12:22;;;;;;;10.35;2.58;;;;;;;;;;5085297;28;20077;-69
2021/01/11 14:14:49;;;;;;;2.72;2.00;;;;;;;;;;5086057;28;20092;-67
2021/01/11 14:17:15;;;;;;;3.67;3.08;;;;;;;;;;5087059;28;20032;-69
2021/01/11 14:19:41;;;;;;;3.00;2.15;;;;;;;;;;5084237;28;20039;-69
2021/01/11 14:22:08;;;;;;;3.20;2.10;;;;;;;;;;5083624;28;20111;-70
2021/01/11 14:24:34;;;;;;;2.40;2.20;;;;;;;;;;5083999;28;20478;-68
2021/01/11 14:27:01;;;;;;;2.22;2.00;;;;;;;;;;5085782;28;20081;-69
2021/01/11 14:29:27;;;;;;;3.22;2.30;;;;;;;;;;5086025;28;20065;-69
2021/01/11 14:31:56;;;;;;;3.20;2.92;;;;;;;;;;5083679;28;20131;-69
2021/01/11 14:34:23;;;;;;;3.92;2.92;;;;;;;;;;5086266;28;20039;-69
2021/01/11 14:36:50;;;;;;;3.10;2.83;;;;;;;;;;5085865;28;20020;-69
2021/01/11 14:39:16;;;;;;;2.47;2.28;;;;;;;;;;5085309;28;20483;-72
2021/01/11 14:41:42;;;;;;;3.75;2.30;;;;;;;;;;5081754;28;20032;-70
2021/01/11 14:44:10;;;;;;;2.40;1.73;;;;;;;;;;5085371;28;20081;-70
2021/01/11 14:46:36;;;;;;;2.30;2.03;;;;;;;;;;5083780;28;20216;-68
2021/01/11 14:49:03;;;;;;;2.40;2.03;;;;;;;;;;5085726;28;20020;-69